createdAt,value
2023-05-14T00:01:46.470Z,48.40
2023-05-14T00:04:13.397Z,48.50
2023-05-14T00:06:40.206Z,48.50
2023-05-14T00:09:06.959Z,48.50
2023-05-14T00:11:33.761Z,48.50
2023-05-14T00:14:00.529Z,48.60
2023-05-14T00:16:27.270Z,48.60
2023-05-14T00:18:54.484Z,48.60
2023-05-14T00:21:21.283Z,48.80
2023-05-14T00:23:48.025Z,48.70
2023-05-14T00:26:14.815Z,48.70
2023-05-14T00:28:44.155Z,48.70
2023-05-14T00:31:11.211Z,48.70
2023-05-14T00:33:37.970Z,48.80
2023-05-14T00:36:04.918Z,48.90
2023-05-14T00:38:31.693Z,48.90
2023-05-14T00:40:58.503Z,49.00
2023-05-14T00:43:25.994Z,48.90
2023-05-14T00:45:54.767Z,49.00
2023-05-14T00:48:22.507Z,49.00
2023-05-14T00:50:50.045Z,49.10
2023-05-14T00:53:18.160Z,49.10
2023-05-14T00:55:45.712Z,49.10
2023-05-14T00:58:13.572Z,49.10
2023-05-14T01:00:41.572Z,49.20
2023-05-14T01:03:09.116Z,49.10
2023-05-14T01:05:51.588Z,49.20
2023-05-14T01:08:40.057Z,49.30
2023-05-14T01:11:30.617Z,49.20
2023-05-14T01:14:14.826Z,49.30
2023-05-14T01:16:42.255Z,49.50
2023-05-14T01:19:21.391Z,49.30
2023-05-14T01:21:48.187Z,49.40
2023-05-14T01:24:14.942Z,49.60
2023-05-14T01:26:41.679Z,49.60
2023-05-14T01:29:20.328Z,49.60
2023-05-14T01:31:49.129Z,49.60
2023-05-14T01:34:16.700Z,49.60
2023-05-14T01:36:44.221Z,49.70
2023-05-14T01:39:12.351Z,49.70
2023-05-14T01:41:39.517Z,49.60
2023-05-14T01:44:06.412Z,49.60
2023-05-14T01:46:34.164Z,49.60
2023-05-14T01:49:01.244Z,49.60
2023-05-14T01:51:28.284Z,49.60
2023-05-14T01:53:55.059Z,49.60
2023-05-14T01:56:23.769Z,49.70
2023-05-14T01:58:50.563Z,49.70
2023-05-14T02:01:17.482Z,49.70
2023-05-14T02:03:44.286Z,49.70
2023-05-14T02:06:11.132Z,49.70
2023-05-14T02:08:37.912Z,49.80
2023-05-14T02:11:04.670Z,49.80
2023-05-14T02:13:31.417Z,49.80
2023-05-14T02:15:58.432Z,49.70
2023-05-14T02:18:25.481Z,49.70
2023-05-14T02:20:52.774Z,49.80
2023-05-14T02:23:25.587Z,49.80
2023-05-14T02:25:58.100Z,49.90
2023-05-14T02:28:24.885Z,49.90
2023-05-14T02:30:51.604Z,49.80
2023-05-14T02:33:18.457Z,49.90
2023-05-14T02:35:45.471Z,50.00
2023-05-14T02:38:13.639Z,50.00
2023-05-14T02:40:40.465Z,50.00
2023-05-14T02:43:07.191Z,50.00
2023-05-14T02:45:33.940Z,50.00
2023-05-14T02:48:00.754Z,50.00
2023-05-14T02:50:27.569Z,50.00
2023-05-14T02:52:54.337Z,50.00
2023-05-14T02:55:21.869Z,50.10
2023-05-14T02:57:48.717Z,50.10
2023-05-14T03:00:15.716Z,50.20
2023-05-14T03:02:43.584Z,50.10
2023-05-14T03:05:10.880Z,50.30
2023-05-14T03:07:37.626Z,50.20
2023-05-14T03:10:04.782Z,50.20
2023-05-14T03:12:31.549Z,50.20
2023-05-14T03:14:58.288Z,50.20
2023-05-14T03:17:25.065Z,50.30
2023-05-14T03:19:51.857Z,50.40
2023-05-14T03:22:18.702Z,50.30
2023-05-14T03:24:45.707Z,50.40
2023-05-14T03:27:12.499Z,50.40
2023-05-14T03:29:39.268Z,50.40
2023-05-14T03:32:07.209Z,50.50
2023-05-14T03:34:33.978Z,50.50
2023-05-14T03:37:01.629Z,50.50
2023-05-14T03:39:29.263Z,50.60
2023-05-14T03:41:58.744Z,50.60
2023-05-14T03:44:25.719Z,50.70
2023-05-14T03:46:52.922Z,50.60
2023-05-14T03:49:19.767Z,50.70
2023-05-14T03:51:46.610Z,50.90
2023-05-14T03:54:13.553Z,50.70
2023-05-14T03:56:40.356Z,50.80
2023-05-14T03:59:07.118Z,51.40
2023-05-14T04:01:33.896Z,50.80
2023-05-14T04:04:00.801Z,50.80
2023-05-14T04:06:27.748Z,50.90
2023-05-14T04:08:55.366Z,50.90
2023-05-14T04:11:22.282Z,50.90
2023-05-14T04:13:49.586Z,50.80
2023-05-14T04:16:16.433Z,50.90
2023-05-14T04:18:43.261Z,50.90
2023-05-14T04:21:10.123Z,50.90
2023-05-14T04:23:36.921Z,51.00
2023-05-14T04:26:04.823Z,51.00
2023-05-14T04:28:31.556Z,50.90
2023-05-14T04:30:58.321Z,51.00
2023-05-14T04:33:25.061Z,51.00
2023-05-14T04:35:52.653Z,51.10
2023-05-14T04:38:19.594Z,51.10
2023-05-14T04:40:46.416Z,51.10
2023-05-14T04:43:13.172Z,51.10
2023-05-14T04:45:40.976Z,51.10
2023-05-14T04:48:07.954Z,51.10
2023-05-14T04:50:35.183Z,51.10
2023-05-14T04:53:01.942Z,51.10
2023-05-14T04:55:28.889Z,51.10
2023-05-14T04:57:55.842Z,51.10
2023-05-14T05:00:23.437Z,51.10
2023-05-14T05:02:50.711Z,51.10
2023-05-14T05:05:17.607Z,51.20
2023-05-14T05:07:44.353Z,51.20
2023-05-14T05:10:11.203Z,51.20
2023-05-14T05:12:38.138Z,51.30
2023-05-14T05:15:05.591Z,51.30
2023-05-14T05:17:32.385Z,51.30
2023-05-14T05:19:59.979Z,51.30
2023-05-14T05:22:26.935Z,51.40
2023-05-14T05:24:53.691Z,51.40
2023-05-14T05:27:21.970Z,51.40
2023-05-14T05:29:48.712Z,51.50
2023-05-14T05:32:16.398Z,51.30
2023-05-14T05:34:43.302Z,51.40
2023-05-14T05:37:12.731Z,51.40
2023-05-14T05:39:39.816Z,51.50
2023-05-14T05:42:07.121Z,51.40
2023-05-14T05:44:33.863Z,51.30
2023-05-14T05:47:00.742Z,51.40
2023-05-14T05:49:28.504Z,51.40
2023-05-14T05:51:55.323Z,51.30
2023-05-14T05:54:23.763Z,51.40
2023-05-14T05:56:51.052Z,51.50
2023-05-14T05:59:17.773Z,51.50
2023-05-14T06:01:44.590Z,51.40
2023-05-14T06:04:11.426Z,51.50
2023-05-14T06:06:38.193Z,51.40
2023-05-14T06:09:06.878Z,51.30
2023-05-14T06:11:33.835Z,51.40
2023-05-14T06:14:00.624Z,51.30
2023-05-14T06:16:27.524Z,51.30
2023-05-14T06:18:55.508Z,51.40
2023-05-14T06:21:22.466Z,51.40
2023-05-14T06:23:49.237Z,51.60
2023-05-14T06:26:16.039Z,51.40
2023-05-14T06:28:42.854Z,51.40
2023-05-14T06:31:09.688Z,51.50
2023-05-14T06:33:36.757Z,51.60
2023-05-14T06:36:07.903Z,51.40
2023-05-14T06:38:34.683Z,51.60
2023-05-14T06:41:01.449Z,51.70
2023-05-14T06:43:28.532Z,51.50
2023-05-14T06:45:55.394Z,51.40
2023-05-14T06:48:22.333Z,51.50
2023-05-14T06:50:49.667Z,51.60
2023-05-14T06:53:16.496Z,51.80
2023-05-14T06:55:43.678Z,52.60
2023-05-14T06:58:10.465Z,52.10
2023-05-14T07:00:38.269Z,52.40
2023-05-14T07:03:05.970Z,52.60
2023-05-14T07:05:32.796Z,52.80
2023-05-14T07:07:59.740Z,53.00
2023-05-14T07:10:27.451Z,52.90
2023-05-14T07:12:54.260Z,53.00
2023-05-14T07:15:21.212Z,53.00
2023-05-14T07:17:48.083Z,53.10
2023-05-14T07:20:14.857Z,53.30
2023-05-14T07:22:42.740Z,53.30
2023-05-14T07:25:09.692Z,53.20
2023-05-14T07:27:36.414Z,53.20
2023-05-14T07:30:03.404Z,53.40
2023-05-14T07:32:30.344Z,53.30
2023-05-14T07:34:57.138Z,53.30
2023-05-14T07:37:25.901Z,53.30
2023-05-14T07:39:53.669Z,53.10
2023-05-14T07:42:34.443Z,53.20
2023-05-14T07:45:02.472Z,53.00
2023-05-14T07:47:30.590Z,53.10
2023-05-14T07:49:57.924Z,52.90
2023-05-14T07:52:25.010Z,52.70
2023-05-14T07:54:52.099Z,52.80
2023-05-14T07:57:19.776Z,52.80
2023-05-14T07:59:48.260Z,52.70
2023-05-14T08:02:16.582Z,52.50
2023-05-14T08:04:43.848Z,52.60
2023-05-14T08:07:10.733Z,52.60
2023-05-14T08:09:37.781Z,52.60
2023-05-14T08:12:04.982Z,52.50
2023-05-14T08:14:31.768Z,52.80
2023-05-14T08:16:58.643Z,52.30
2023-05-14T08:19:27.299Z,52.20
2023-05-14T08:21:54.338Z,52.30
2023-05-14T08:24:21.431Z,52.30
2023-05-14T08:26:48.245Z,52.20
2023-05-14T08:29:16.560Z,51.80
2023-05-14T08:31:43.868Z,51.50
2023-05-14T08:34:10.769Z,51.50
2023-05-14T08:36:38.630Z,51.40
2023-05-14T08:39:07.566Z,51.20
2023-05-14T08:41:34.787Z,51.10
2023-05-14T08:44:10.772Z,51.00
2023-05-14T08:46:38.652Z,51.10
2023-05-14T08:49:32.598Z,50.90
2023-05-14T08:52:00.387Z,50.60
2023-05-14T08:54:28.584Z,51.00
2023-05-14T08:56:56.248Z,50.60
2023-05-14T08:59:22.981Z,50.40
2023-05-14T09:01:53.396Z,50.80
2023-05-14T09:04:23.012Z,50.60
2023-05-14T09:06:51.916Z,50.00
2023-05-14T09:09:18.877Z,50.10
2023-05-14T09:11:53.602Z,49.90
2023-05-14T09:14:22.229Z,49.40
2023-05-14T09:16:50.183Z,49.50
2023-05-14T09:19:19.232Z,50.10
2023-05-14T09:21:47.165Z,49.30
2023-05-14T09:24:24.993Z,49.20
2023-05-14T09:26:53.515Z,48.80
2023-05-14T09:29:20.529Z,48.90
2023-05-14T09:31:50.445Z,48.60
2023-05-14T09:34:37.389Z,48.30
2023-05-14T09:37:08.806Z,48.50
2023-05-14T09:39:37.235Z,48.60
2023-05-14T09:42:04.470Z,48.30
2023-05-14T09:44:31.914Z,48.20
2023-05-14T09:46:58.869Z,47.90
2023-05-14T09:49:25.925Z,47.80
2023-05-14T09:51:52.788Z,47.70
2023-05-14T09:54:19.625Z,47.70
2023-05-14T09:56:46.410Z,47.80
2023-05-14T09:59:13.190Z,48.10
2023-05-14T10:01:43.674Z,47.60
2023-05-14T10:04:11.446Z,47.30
2023-05-14T10:06:39.338Z,47.40
2023-05-14T10:09:12.089Z,47.50
2023-05-14T10:11:43.272Z,47.10
2023-05-14T10:14:33.198Z,47.20
2023-05-14T10:17:01.955Z,46.80
2023-05-14T10:19:33.448Z,45.90
2023-05-14T10:22:04.541Z,46.20
2023-05-14T10:24:31.882Z,46.30
2023-05-14T10:26:58.856Z,45.70
2023-05-14T10:29:34.049Z,46.00
2023-05-14T10:32:06.815Z,45.30
2023-05-14T10:34:46.617Z,44.70
2023-05-14T10:37:17.718Z,45.60
2023-05-14T10:39:59.182Z,45.20
2023-05-14T10:42:39.640Z,45.00
2023-05-14T10:45:11.259Z,45.20
2023-05-14T10:47:39.743Z,45.10
2023-05-14T10:50:12.426Z,44.40
2023-05-14T10:52:44.770Z,44.00
2023-05-14T10:55:16.337Z,43.10
2023-05-14T10:57:45.349Z,43.40
2023-05-14T11:00:13.740Z,43.10
2023-05-14T11:02:41.844Z,42.60
2023-05-14T11:05:11.592Z,41.80
2023-05-14T11:07:40.647Z,42.10
2023-05-14T11:10:09.960Z,42.50
2023-05-14T11:12:39.180Z,42.40
2023-05-14T11:15:11.182Z,41.80
2023-05-14T11:17:40.409Z,41.90
2023-05-14T11:20:08.083Z,42.80
2023-05-14T11:22:36.158Z,41.80
2023-05-14T11:25:03.253Z,41.10
2023-05-14T11:27:31.077Z,41.40
2023-05-14T11:29:58.166Z,41.40
2023-05-14T11:32:25.046Z,41.30
2023-05-14T11:34:51.930Z,41.00
2023-05-14T11:37:18.733Z,40.90
2023-05-14T11:39:50.693Z,41.10
2023-05-14T11:42:19.492Z,40.70
2023-05-14T11:44:51.955Z,40.30
2023-05-14T11:47:21.170Z,39.90
2023-05-14T11:49:49.605Z,39.40
2023-05-14T11:52:19.282Z,39.50
2023-05-14T11:54:46.455Z,38.90
2023-05-14T11:57:16.561Z,38.70
2023-05-14T11:59:43.804Z,38.20
2023-05-14T12:02:12.836Z,37.90
2023-05-14T12:04:40.349Z,37.90
2023-05-14T12:07:15.686Z,38.30
2023-05-14T12:09:50.967Z,38.50
2023-05-14T12:12:19.984Z,37.70
2023-05-14T12:14:46.888Z,38.20
2023-05-14T12:17:21.619Z,38.00
2023-05-14T12:19:51.132Z,38.00
2023-05-14T12:22:21.431Z,37.30
2023-05-14T12:24:58.677Z,36.90
2023-05-14T12:27:26.969Z,36.80
2023-05-14T12:30:19.024Z,37.00
2023-05-14T12:32:49.129Z,37.30
2023-05-14T12:35:16.062Z,36.60
2023-05-14T12:37:43.028Z,36.50
2023-05-14T12:40:10.225Z,36.90
2023-05-14T12:42:37.086Z,36.30
2023-05-14T12:45:07.236Z,36.40
2023-05-14T12:47:34.275Z,35.90
2023-05-14T12:50:01.249Z,36.10
2023-05-14T12:52:37.465Z,35.80
2023-05-14T12:55:07.713Z,35.70
2023-05-14T12:57:35.392Z,35.80
2023-05-14T13:00:06.369Z,36.70
2023-05-14T13:02:33.217Z,36.80
2023-05-14T13:05:10.716Z,37.50
2023-05-14T13:07:37.555Z,37.40
2023-05-14T13:10:05.779Z,37.40
2023-05-14T13:12:32.827Z,37.40
2023-05-14T13:14:59.607Z,37.30
2023-05-14T13:17:26.445Z,38.20
2023-05-14T13:19:53.256Z,38.40
2023-05-14T13:22:20.088Z,37.20
2023-05-14T13:24:46.940Z,36.80
2023-05-14T13:27:13.728Z,36.60
2023-05-14T13:29:40.515Z,36.30
2023-05-14T13:32:07.528Z,37.50
2023-05-14T13:34:35.132Z,36.70
2023-05-14T13:37:02.007Z,36.50
2023-05-14T13:39:28.743Z,36.10
2023-05-14T13:41:56.840Z,36.00
2023-05-14T13:44:24.315Z,36.00
2023-05-14T13:46:51.278Z,36.30
2023-05-14T13:49:18.220Z,36.30
2023-05-14T13:51:45.309Z,36.10
2023-05-14T13:54:12.061Z,36.10
2023-05-14T13:56:39.652Z,35.40
2023-05-14T13:59:06.457Z,35.30
2023-05-14T14:01:33.403Z,36.00
2023-05-14T14:04:00.426Z,35.60
2023-05-14T14:06:27.549Z,35.70
2023-05-14T14:08:54.344Z,35.80
2023-05-14T14:11:22.080Z,36.10
2023-05-14T14:13:48.885Z,35.60
2023-05-14T14:16:16.303Z,37.00
2023-05-14T14:18:43.386Z,36.40
2023-05-14T14:21:10.561Z,37.10
2023-05-14T14:23:37.450Z,37.30
2023-05-14T14:26:04.460Z,36.50
2023-05-14T14:28:33.380Z,37.30
2023-05-14T14:31:00.169Z,37.60
2023-05-14T14:33:27.317Z,37.10
2023-05-14T14:35:54.131Z,36.50
2023-05-14T14:38:20.872Z,36.60
2023-05-14T14:40:47.695Z,37.30
2023-05-14T14:43:14.601Z,37.80
2023-05-14T14:45:42.785Z,36.90
2023-05-14T14:48:34.039Z,36.00
2023-05-14T14:51:01.522Z,35.80
2023-05-14T14:53:28.310Z,37.50
2023-05-14T14:55:55.218Z,36.80
2023-05-14T14:58:22.152Z,37.00
2023-05-14T15:00:53.799Z,38.10
2023-05-14T15:03:21.331Z,37.70
2023-05-14T15:05:48.432Z,37.40
2023-05-14T15:08:15.529Z,36.80
2023-05-14T15:10:42.393Z,36.80
2023-05-14T15:13:09.473Z,36.60
2023-05-14T15:15:36.385Z,36.20
2023-05-14T15:18:04.353Z,36.20
2023-05-14T15:20:31.242Z,36.20
2023-05-14T15:22:58.029Z,37.20
2023-05-14T15:25:26.968Z,36.60
2023-05-14T15:27:54.031Z,37.40
2023-05-14T15:30:20.841Z,36.80
2023-05-14T15:32:47.688Z,37.20
2023-05-14T15:35:14.521Z,36.70
2023-05-14T15:37:43.165Z,37.50
2023-05-14T15:40:11.519Z,38.20
2023-05-14T15:42:39.598Z,37.90
2023-05-14T15:45:06.731Z,37.90
2023-05-14T15:47:33.671Z,38.60
2023-05-14T15:50:01.003Z,38.20
2023-05-14T15:52:27.777Z,38.40
2023-05-14T15:54:56.172Z,38.00
2023-05-14T15:57:23.448Z,38.90
2023-05-14T15:59:51.448Z,39.00
2023-05-14T16:02:19.173Z,38.80
2023-05-14T16:04:45.896Z,38.90
2023-05-14T16:07:13.434Z,39.30
2023-05-14T16:09:40.369Z,39.30
2023-05-14T16:12:07.647Z,39.50
2023-05-14T16:14:35.624Z,39.80
2023-05-14T16:17:02.415Z,39.40
2023-05-14T16:19:29.217Z,38.40
2023-05-14T16:21:56.057Z,38.20
2023-05-14T16:24:22.832Z,38.30
2023-05-14T16:27:43.174Z,39.40
2023-05-14T16:30:10.439Z,39.00
2023-05-14T16:32:37.345Z,39.80
2023-05-14T16:35:04.413Z,39.70
2023-05-14T16:37:31.556Z,40.40
2023-05-14T16:39:58.359Z,40.80
2023-05-14T16:42:26.528Z,41.30
2023-05-14T16:44:53.330Z,41.40
2023-05-14T16:47:20.070Z,41.70
2023-05-14T16:49:46.816Z,40.80
2023-05-14T16:52:13.602Z,42.00
2023-05-14T16:54:40.457Z,41.50
2023-05-14T16:57:07.250Z,42.10
2023-05-14T16:59:34.169Z,42.00
2023-05-14T17:02:01.109Z,41.50
2023-05-14T17:04:28.023Z,41.70
2023-05-14T17:06:57.536Z,42.00
2023-05-14T17:09:24.670Z,41.90
2023-05-14T17:11:51.552Z,42.50
2023-05-14T17:14:18.317Z,42.70
2023-05-14T17:16:45.069Z,43.50
2023-05-14T17:19:12.512Z,43.40
2023-05-14T17:21:39.328Z,43.10
2023-05-14T17:24:06.326Z,43.10
2023-05-14T17:26:33.067Z,43.50
2023-05-14T17:28:59.877Z,43.50
2023-05-14T17:31:26.715Z,43.40
2023-05-14T17:33:53.568Z,43.80
2023-05-14T17:36:20.548Z,43.50
2023-05-14T17:38:47.729Z,44.20
2023-05-14T17:41:14.470Z,43.80
2023-05-14T17:43:41.247Z,43.80
2023-05-14T17:46:08.038Z,44.30
2023-05-14T17:48:34.850Z,44.40
2023-05-14T17:51:01.611Z,44.30
2023-05-14T17:53:28.540Z,44.40
2023-05-14T17:55:55.441Z,44.30
2023-05-14T17:58:22.331Z,44.40
2023-05-14T18:00:49.336Z,44.30
2023-05-14T18:03:17.477Z,44.70
2023-05-14T18:05:44.432Z,44.50
2023-05-14T18:08:11.158Z,44.50
2023-05-14T18:10:37.930Z,44.80
2023-05-14T18:13:04.671Z,45.10
2023-05-14T18:15:31.655Z,45.10
2023-05-14T18:17:58.529Z,45.10
2023-05-14T18:20:25.444Z,45.00
2023-05-14T18:22:52.388Z,44.70
2023-05-14T18:25:20.030Z,45.00
2023-05-14T18:27:47.011Z,44.90
2023-05-14T18:30:15.077Z,44.90
2023-05-14T18:32:43.957Z,45.10
2023-05-14T18:35:12.143Z,45.10
2023-05-14T18:37:38.909Z,45.40
2023-05-14T18:40:07.147Z,45.20
2023-05-14T18:42:34.388Z,45.50
2023-05-14T18:45:01.479Z,46.00
2023-05-14T18:47:28.340Z,46.40
2023-05-14T18:49:57.724Z,46.40
2023-05-14T18:52:24.779Z,46.50
2023-05-14T18:54:51.663Z,47.10
2023-05-14T18:57:18.371Z,47.00
2023-05-14T18:59:45.191Z,46.80
2023-05-14T19:02:12.050Z,46.80
2023-05-14T19:04:51.179Z,46.80
2023-05-14T19:07:19.887Z,46.90
2023-05-14T19:09:46.859Z,46.80
2023-05-14T19:12:14.104Z,46.70
2023-05-14T19:14:40.829Z,46.70
2023-05-14T19:17:07.719Z,46.60
2023-05-14T19:19:34.457Z,46.60
2023-05-14T19:22:01.175Z,46.50
2023-05-14T19:24:28.772Z,46.40
2023-05-14T19:26:55.913Z,46.50
2023-05-14T19:29:22.704Z,46.50
2023-05-14T19:31:50.019Z,46.50
2023-05-14T19:34:16.975Z,46.40
2023-05-14T19:36:43.705Z,46.60
2023-05-14T19:39:10.941Z,47.20
2023-05-14T19:41:37.754Z,47.50
2023-05-14T19:44:04.483Z,47.40
2023-05-14T19:46:32.084Z,47.40
2023-05-14T19:48:58.954Z,47.50
2023-05-14T19:51:25.672Z,47.50
2023-05-14T19:53:52.508Z,47.60
2023-05-14T19:56:19.220Z,47.50
2023-05-14T19:58:45.983Z,47.40
2023-05-14T20:01:14.470Z,47.50
2023-05-14T20:03:41.306Z,47.60
2023-05-14T20:06:08.165Z,47.50
2023-05-14T20:08:35.002Z,47.50
2023-05-14T20:11:01.913Z,47.50
2023-05-14T20:13:31.676Z,47.50
2023-05-14T20:15:58.810Z,47.50
2023-05-14T20:18:27.543Z,47.40
2023-05-14T20:20:54.712Z,47.40
2023-05-14T20:23:21.463Z,47.50
2023-05-14T20:25:48.264Z,47.40
2023-05-14T20:28:14.972Z,47.40
2023-05-14T20:30:41.753Z,47.40
2023-05-14T20:33:09.459Z,47.30
2023-05-14T20:35:36.270Z,47.40
2023-05-14T20:38:03.752Z,47.40
2023-05-14T20:40:32.574Z,47.40
2023-05-14T20:42:59.463Z,47.40
2023-05-14T20:45:26.576Z,47.40
2023-05-14T20:47:53.733Z,47.50
2023-05-14T20:50:21.507Z,47.40
2023-05-14T20:52:48.388Z,47.40
2023-05-14T20:55:15.435Z,47.50
2023-05-14T20:57:43.597Z,47.60
2023-05-14T21:00:11.122Z,47.60
2023-05-14T21:02:38.950Z,47.60
2023-05-14T21:05:06.294Z,47.60
2023-05-14T21:07:33.025Z,47.70
2023-05-14T21:09:59.776Z,47.70
2023-05-14T21:12:28.028Z,47.60
2023-05-14T21:14:54.733Z,47.70
2023-05-14T21:17:22.324Z,47.80
2023-05-14T21:19:49.116Z,47.70
2023-05-14T21:22:15.845Z,47.60
2023-05-14T21:24:42.613Z,47.80
2023-05-14T21:27:10.208Z,47.70
2023-05-14T21:29:36.912Z,47.70
2023-05-14T21:32:03.871Z,47.70
2023-05-14T21:34:32.010Z,47.70
2023-05-14T21:36:58.847Z,47.70
2023-05-14T21:39:25.603Z,47.90
2023-05-14T21:41:52.329Z,47.90
2023-05-14T21:44:19.078Z,47.80
2023-05-14T21:46:45.897Z,48.00
2023-05-14T21:49:12.599Z,47.80
2023-05-14T21:51:39.377Z,47.80
2023-05-14T21:54:07.198Z,47.80
2023-05-14T21:56:35.802Z,47.70
2023-05-14T21:59:02.605Z,47.90
2023-05-14T22:01:30.437Z,47.80
2023-05-14T22:03:57.842Z,47.80
2023-05-14T22:06:25.095Z,48.00
2023-05-14T22:08:51.881Z,48.00
2023-05-14T22:11:18.676Z,48.10
2023-05-14T22:13:45.397Z,48.10
2023-05-14T22:16:13.674Z,48.00
2023-05-14T22:18:41.047Z,47.90
2023-05-14T22:21:07.920Z,48.00
2023-05-14T22:23:34.703Z,48.10
2023-05-14T22:26:01.452Z,48.00
2023-05-14T22:28:28.217Z,48.10
2023-05-14T22:30:56.428Z,48.10
2023-05-14T22:33:23.353Z,48.10
2023-05-14T22:35:50.569Z,48.10
2023-05-14T22:38:17.395Z,48.10
2023-05-14T22:40:44.287Z,48.10
2023-05-14T22:43:11.116Z,48.20
2023-05-14T22:45:37.922Z,48.20
2023-05-14T22:48:04.884Z,48.20
2023-05-14T22:50:31.685Z,48.90
2023-05-14T22:52:58.488Z,48.20
2023-05-14T22:55:25.519Z,48.30
2023-05-14T22:57:52.407Z,48.10
2023-05-14T23:00:19.288Z,48.20
2023-05-14T23:02:46.918Z,48.30
2023-05-14T23:05:13.762Z,48.30
2023-05-14T23:07:40.563Z,48.40
2023-05-14T23:10:07.904Z,48.40
2023-05-14T23:12:34.659Z,48.50
2023-05-14T23:15:01.506Z,48.30
2023-05-14T23:17:28.646Z,48.40
2023-05-14T23:19:55.573Z,48.50
2023-05-14T23:22:22.395Z,48.60
2023-05-14T23:24:50.050Z,48.60
2023-05-14T23:27:16.953Z,48.40
2023-05-14T23:29:43.707Z,48.40
2023-05-14T23:32:10.569Z,48.50
2023-05-14T23:34:37.412Z,49.20
2023-05-14T23:37:04.230Z,48.50
2023-05-14T23:39:30.991Z,48.60
2023-05-14T23:41:58.553Z,48.70
2023-05-14T23:44:25.410Z,48.70
2023-05-14T23:46:52.221Z,48.70
2023-05-14T23:49:20.027Z,48.60
2023-05-14T23:51:46.751Z,48.90
2023-05-14T23:54:13.540Z,49.00
2023-05-14T23:56:40.647Z,49.10
2023-05-14T23:59:07.508Z,49.10
